logo
App data

For The Glory: A Europa Universalis Game

Take up the reigns of your country, guide domestic and foreign policy, navigate thousands of historical events, engage in various struggles and lead your country to prosperity – all in the name of glory!
Store | Hub | SteamDB
Developer: Crystal Empire Games Publisher: Paradox Interactive
Genre: Strategy
Languages: English
Tags: Strategy (28), Grand Strategy (9), Historical (6)
Category: Single-player, Multi-player
Release date: Nov 11, 2009
Price: $9.99
Score rank: 37% Userscore: 73% Old userscore: 72%
Owners: 20,000 .. 50,000
Followers: 399
Peak concurrent players yesterday: 12
Playtime total: 03:02 (average) 03:50 (median)

Steam Spy is still in beta, so expect major bugs.

Owners data:

Access restricted.

This feature is only available to users with special access rights. Sorry.

If you want to proceed, you need to register or log in first and then back Steam Spy on Patreon. Look for Indie or Pro pledge.

Don't forget to use the same email as on Steam Spy!

Audience in 2 weeks:

Access restricted.

This feature is only available to users with special access rights. Sorry.

If you want to proceed, you need to register or log in first and then back Steam Spy on Patreon. Look for Indie or Pro pledge.

Don't forget to use the same email as on Steam Spy!

Peak daily concurrent players:

CCU data courtesy of SteamDB. Used with permission.

Hourly concurrent players:

YouTube:

The views data is based on top 50 videos uploaded last week. Actual number of views might be more than the number shown.

The displayed number of videos uploaded yesterday is limited to 50, so if there were more videos uploaded, the number will still show 50.

If the game has commonly used word as its name (like "FEAR" or "Volume") its number of Youtube views might be wrong.

Games similar to this one:

# Game Release date
Price
Score rank
(Userscore / Metascore)
Owners
Players
Playtime (Median)
1 Hostile Waters: Antaeus Rising Jun 14, 2001 $2.9997% (97%/80%)100,000 .. 200,0000.78%03:26 (03:12)
2 Darknet Jun 8, 2017 $14.99N/A (N/A)0 .. 20,0000%00:00 (00:00)
3 War of the Human Tanks - ALTeR Feb 13, 2015 $12.9993% (95%)0 .. 20,0002.63%05:19 (01:46)
4 Decisive Campaigns: Barbarossa Apr 29, 2016 $49.9993% (95%)0 .. 20,0000%00:00 (00:00)
5 Templar Battleforce Sep 21, 2015 $9.9993% (95%)20,000 .. 50,0005.88%00:01 (00:00)
6 Zeus + Poseidon Dec 15, 2016 $9.9990% (94%)20,000 .. 50,0000%00:00 (00:00)
7 Frost Jul 5, 2016 $6.9990% (94%)0 .. 20,0000%00:00 (00:00)
8 Gary Grigsby's War in the East Dec 7, 2010 $79.9987% (93%)0 .. 20,0000%00:00 (00:00)
9 Garden Rescue Feb 2, 2015 $3.9983% (92%)100,000 .. 200,0000.22%00:46 (00:15)
10 Battle Academy 2: Eastern Front Sep 12, 2014 $39.9983% (92%/78%)0 .. 20,0000%00:00 (00:00)
11 Flashpoint Campaigns: Red Storm Player's Edition Oct 9, 2013 $49.9980% (91%)0 .. 20,0000%00:00 (00:00)
12 Kittypocalypse Aug 15, 2016 $14.9976% (90%)0 .. 20,0000%00:00 (00:00)
13 Children of a Dead Earth Sep 23, 2016 $24.9976% (90%)0 .. 20,0000%00:00 (00:00)
14 Kohan: Ahriman's Gift Nov 6, 2001 $9.99N/A (N/A/79%)0 .. 20,0000%00:00 (00:00)
15 Alien Robot Monsters Sep 9, 2015 $5.9970% (88%)0 .. 20,0000%00:00 (00:00)
16 Viking Saga: New World Nov 5, 2015 $3.99N/A (N/A)0 .. 20,0000%00:00 (00:00)
17 Star Ruler Sep 20, 2010 $9.9965% (86%)100,000 .. 200,0000%00:00 (00:00)
18 Stalingrad Apr 5, 2005 $4.9965% (86%)20,000 .. 50,0000%00:00 (00:00)
19 Enemy Mar 17, 2015 $14.9960% (84%)0 .. 20,0000%00:00 (00:00)
20 MechoEcho May 18, 2016 $9.99N/A (N/A)0 .. 20,0000%00:00 (00:00)
21 NOBUNAGA'S AMBITION: Sphere of Influence Sep 1, 2015 $59.9957% (83%/70%)20,000 .. 50,0000%00:00 (00:00)
22 Conflicks - Revolutionary Space Battles Nov 5, 2015 $6.9957% (83%/63%)0 .. 20,0000%00:00 (00:00)
23 Advanced Tactics Gold Apr 12, 2011 $29.9957% (83%)0 .. 20,0000%00:00 (00:00)
24 Radiant Defense Jul 11, 2014 $4.9955% (82%)0 .. 20,0000%00:00 (00:00)
25 Lords of the Realm Nov 30, 1994 $1.99N/A (N/A)0 .. 20,0000%00:00 (00:00)
26 Strategic Command WWII: War in Europe Jun 6, 2017 $39.99N/A (N/A)0 .. 20,0000%00:00 (00:00)
27 Zombie Riot May 25, 2017 $19.99N/A (N/A)0 .. 20,0000%00:00 (00:00)
28 Tank Warfare: Tunisia 1943 May 1, 2017 $39.9950% (80%)0 .. 20,0000%00:00 (00:00)
29 Soldiers: Heroes of World War II Jun 29, 2004 $4.9948% (79%/77%)50,000 .. 100,0000%00:00 (00:00)
30 Race for the Galaxy Jun 27, 2017 $6.9948% (79%)0 .. 20,0000%00:00 (00:00)
31 Defense Zone 3 Ultra HD Dec 14, 2016 $2.9948% (79%)0 .. 20,0000%00:00 (00:00)
32 War on Folvos Sep 25, 2006 $3.9946% (78%)20,000 .. 50,0000.68%13:20 (04:26)
33 Drive on Moscow Oct 27, 2016 $9.99N/A (N/A)0 .. 20,0000%00:00 (00:00)
34 Hidden Dimensions 3 Oct 12, 2016 FreeN/A (N/A)0 .. 20,0000%00:00 (00:00)
35 Catch Me Sep 5, 2016 $5.9946% (78%)0 .. 20,0002.5%03:06 (01:02)
36 Stellar Monarch Dec 5, 2016 $19.9946% (78%)0 .. 20,0000%00:00 (00:00)
37 Star Hammer: The Vanguard Prophecy Jun 4, 2015 $19.9943% (76%/69%)0 .. 20,0000%00:00 (00:00)
38 Tank Battle: 1944 Mar 1, 2016 $9.99N/A (N/A)0 .. 20,00010%03:28 (02:37)
39 Pick a Hero Jun 9, 2016 $0.99N/A (N/A)0 .. 20,0000%00:00 (00:00)
40 Codex of Victory Mar 16, 2017 $14.9939% (74%)0 .. 20,0000%00:00 (00:00)
41 Machines At War 3 Jul 23, 2014 $14.99N/A (N/A)0 .. 20,0000%00:00 (00:00)
42 Special Tactics Apr 26, 2016 $4.9937% (73%)0 .. 20,0000%00:00 (00:00)
43 Attack Heroes Apr 27, 2017 $9.9935% (72%)0 .. 20,0000%00:00 (00:00)
44 Cheats 4 Hire Jun 25, 2015 $4.99N/A (N/A)0 .. 20,0000%00:00 (00:00)
45 Winds Of Trade Feb 13, 2017 $14.9934% (71%)0 .. 20,0004.76%01:00 (00:20)
46 Little King's Story Aug 5, 2016 $19.9932% (70%/62%)0 .. 20,0000%00:00 (00:00)
47 Mosby's Confederacy Nov 19, 2008 $9.99N/A (N/A)0 .. 20,0000%00:00 (00:00)
48 Rooster Teeth vs. Zombiens Dec 18, 2014 N/A32% (70%)0 .. 20,0000%00:00 (00:00)
49 Deadstone Nov 12, 2014 $7.99N/A (N/A)0 .. 20,0000%00:00 (00:00)
50 Warhammer 40,000: Armageddon - Da Orks Aug 18, 2016 $19.99N/A (N/A)0 .. 20,0000%00:00 (00:00)
51 Defect Jul 28, 2016 $14.99N/A (N/A)0 .. 20,0000%00:00 (00:00)
52 APT Aug 27, 2015 $14.99N/A (N/A)0 .. 20,0000%00:00 (00:00)
53 Cuban Missile Crisis: Ice Crusade Jul 29, 2005 $4.99N/A (N/A)20,000 .. 50,0001.41%00:02 (00:00)
54 Battle of the Bulge Sep 17, 2015 $9.9924% (64%)0 .. 20,0000%00:00 (00:00)
55 Helldorado Apr 30, 2009 $9.9924% (64%/65%)20,000 .. 50,0000%00:00 (00:00)
56 Beasts Battle Jun 15, 2016 $1.9924% (64%)0 .. 20,0000%00:00 (00:00)
57 Business Tour - Online Multiplayer Board Game Jul 27, 2017 Free23% (63%)1,000,000 .. 2,000,0009.04%10:40 (01:01)
58 Freight Tycoon Inc. Aug 15, 2007 $4.9921% (62%)20,000 .. 50,0000%00:00 (00:00)
59 Spice Road Apr 24, 2014 $19.9920% (61%)0 .. 20,0000%00:00 (00:00)
60 Ninja Cats vs Samurai Dogs Feb 21, 2014 $4.99N/A (N/A)0 .. 20,0000%00:00 (00:00)
61 Steam Squad Jul 28, 2016 $17.9920% (61%)0 .. 20,0000%00:00 (00:00)
62 Slayer Shock Sep 29, 2016 $19.9919% (60%)0 .. 20,0000%00:00 (00:00)
63 Close Combat - Panthers in the Fog Nov 19, 2012 $39.9919% (60%)0 .. 20,0000%00:00 (00:00)
64 SunAge: Battle for Elysium Dec 15, 2014 $14.9919% (60%)0 .. 20,0000%00:00 (00:00)
65 LA Cops Mar 13, 2015 $14.9919% (60%/45%)0 .. 20,0000%00:00 (00:00)
66 Element TD Jan 20, 2017 $0.99N/A (N/A)0 .. 20,0000%00:00 (00:00)
67 Check vs Mate Aug 16, 2012 $19.9918% (59%/69%)0 .. 20,0000%00:00 (00:00)
68 Life in Bunker Feb 25, 2016 $15.9918% (59%)0 .. 20,0000%00:00 (00:00)
69 Dungeon Manager ZV Oct 16, 2015 $9.9916% (57%)0 .. 20,0000%00:00 (00:00)
70 reconquest Dec 16, 2016 $11.9915% (56%)0 .. 20,0000%00:00 (00:00)
71 3D Chess Dec 6, 2016 $9.99N/A (N/A)0 .. 20,0000%00:00 (00:00)
72 Desert Law Apr 29, 2005 $2.99N/A (N/A)20,000 .. 50,0000%00:00 (00:00)
73 Starlight Tactics Apr 7, 2015 $9.99N/A (N/A)0 .. 20,0000%00:00 (00:00)
74 Front Wars Aug 17, 2015 $6.99N/A (N/A)0 .. 20,0000%00:00 (00:00)
75 Star Traders: 4X Empires Nov 18, 2014 $9.999% (47%)0 .. 20,0000%00:00 (00:00)
76 Clockwork Empires Oct 26, 2016 $29.999% (46%/58%)20,000 .. 50,0000%00:00 (00:00)
77 Chronostorm: Siberian Border Apr 2, 2009 $0.99N/A (N/A)0 .. 20,0000%00:00 (00:00)
78 ZAMB! Biomutant Extermination Jun 20, 2014 $4.99N/A (N/A)0 .. 20,0000%00:00 (00:00)
79 Zombie Wars: Invasion Jan 14, 2016 $2.99N/A (N/A)0 .. 20,0002.78%08:58 (05:47)
80 Rulers of Nations Jul 16, 2014 $19.997% (41%/63%)0 .. 20,0000%00:00 (00:00)
81 Cubesis Aug 22, 2014 $4.99N/A (N/A)0 .. 20,0000%00:00 (00:00)
82 Assault Corps 2 Jul 16, 2015 $2.99N/A (N/A)0 .. 20,0000%00:00 (00:00)
83 CTU: Counter Terrorism Unit Apr 22, 2016 $14.994% (34%)0 .. 20,0000%00:00 (00:00)
84 Sim Junta Aug 18, 2015 $1.994% (33%)0 .. 20,0000%00:00 (00:00)
85 Storm over the Pacific Jun 13, 2014 $9.99N/A (N/A)0 .. 20,0002.94%18:40 (06:13)
86 Power of Defense Aug 4, 2010 $9.99N/A (N/A)0 .. 20,0000%00:00 (00:00)
87 Direct Hit: Missile War Mar 1, 2011 $9.99N/A (N/A)0 .. 20,0000%00:00 (00:00)
88 Jurassic Island: The Dinosaur Zoo Jun 11, 2015 $3.991% (4%)0 .. 20,0000%00:00 (00:00)
89 Fray: Reloaded Edition Jun 19, 2012 N/AN/A (N/A/27%)0 .. 20,0000%00:00 (00:00)

Owners of this game also own:

Access restricted.

This feature is only available to users with special access rights. Sorry.

If you want to proceed, you need to register or log in first and then back Steam Spy on Patreon. Look for Indie or Pro pledge.

Don't forget to use the same email as on Steam Spy!

Playtime distribution:

Access restricted.

This feature is only available to users with special access rights. Sorry.

If you want to proceed, you need to register or log in first and then back Steam Spy on Patreon. Look for Indie or Pro pledge.

Don't forget to use the same email as on Steam Spy!

Playtime (2 weeks):

Access restricted.

This feature is only available to users with special access rights. Sorry.

If you want to proceed, you need to register or log in first and then back Steam Spy on Patreon. Look for Indie or Pro pledge.

Don't forget to use the same email as on Steam Spy!

User reviews:

Login required.

Please register or log in to see this information.